sensor_id;sensor_type;location;lat;lon;timestamp;temperature;humidity
57088;DHT22;42965;52.846;6.614;2023-04-03T00:01:09;3.00;99.90
57088;DHT22;42965;52.846;6.614;2023-04-03T00:03:36;3.00;99.90
57088;DHT22;42965;52.846;6.614;2023-04-03T00:06:03;3.00;99.90
57088;DHT22;42965;52.846;6.614;2023-04-03T00:08:31;3.00;99.90
57088;DHT22;42965;52.846;6.614;2023-04-03T00:10:58;2.90;99.90
57088;DHT22;42965;52.846;6.614;2023-04-03T00:13:25;2.90;99.90
57088;DHT22;42965;52.846;6.614;2023-04-03T00:15:52;2.90;99.90
57088;DHT22;42965;52.846;6.614;2023-04-03T00:18:19;2.90;99.90
57088;DHT22;42965;52.846;6.614;2023-04-03T00:20:45;2.80;99.90
57088;DHT22;42965;52.846;6.614;2023-04-03T00:23:11;2.80;99.90
57088;DHT22;42965;52.846;6.614;2023-04-03T00:25:38;2.80;99.90
57088;DHT22;42965;52.846;6.614;2023-04-03T00:28:05;2.70;99.90
57088;DHT22;42965;52.846;6.614;2023-04-03T00:30:31;2.70;99.90
57088;DHT22;42965;52.846;6.614;2023-04-03T00:32:59;2.70;99.90
57088;DHT22;42965;52.846;6.614;2023-04-03T00:35:27;2.60;99.90
57088;DHT22;42965;52.846;6.614;2023-04-03T00:37:54;2.60;99.90
57088;DHT22;42965;52.846;6.614;2023-04-03T00:40:23;2.60;99.90
57088;DHT22;42965;52.846;6.614;2023-04-03T00:42:58;2.50;99.90
57088;DHT22;42965;52.846;6.614;2023-04-03T00:45:34;2.50;99.90
57088;DHT22;42965;52.846;6.614;2023-04-03T00:48:04;2.50;99.90
57088;DHT22;42965;52.846;6.614;2023-04-03T00:50:34;2.50;99.90
57088;DHT22;42965;52.846;6.614;2023-04-03T00:53:02;2.40;99.90
57088;DHT22;42965;52.846;6.614;2023-04-03T00:55:29;2.40;99.90
57088;DHT22;42965;52.846;6.614;2023-04-03T00:57:56;2.30;99.90
57088;DHT22;42965;52.846;6.614;2023-04-03T01:00:23;2.30;99.90
57088;DHT22;42965;52.846;6.614;2023-04-03T01:02:58;2.30;99.90
57088;DHT22;42965;52.846;6.614;2023-04-03T01:05:26;2.20;99.90
57088;DHT22;42965;52.846;6.614;2023-04-03T01:07:53;2.20;99.90
57088;DHT22;42965;52.846;6.614;2023-04-03T01:10:20;2.10;99.90
57088;DHT22;42965;52.846;6.614;2023-04-03T01:12:49;2.10;99.90
57088;DHT22;42965;52.846;6.614;2023-04-03T01:15:25;2.10;99.90
57088;DHT22;42965;52.846;6.614;2023-04-03T01:18:00;2.10;99.90
57088;DHT22;42965;52.846;6.614;2023-04-03T01:26:02;2.00;99.90
57088;DHT22;42965;52.846;6.614;2023-04-03T01:28:32;1.90;99.90
57088;DHT22;42965;52.846;6.614;2023-04-03T01:33:43;1.90;99.90
57088;DHT22;42965;52.846;6.614;2023-04-03T01:36:13;1.80;99.90
57088;DHT22;42965;52.846;6.614;2023-04-03T01:38:41;1.80;99.90
57088;DHT22;42965;52.846;6.614;2023-04-03T01:41:07;1.80;99.90
57088;DHT22;42965;52.846;6.614;2023-04-03T01:43:34;1.70;99.90
57088;DHT22;42965;52.846;6.614;2023-04-03T01:46:05;1.70;99.90
57088;DHT22;42965;52.846;6.614;2023-04-03T01:48:31;1.70;99.90
57088;DHT22;42965;52.846;6.614;2023-04-03T01:50:59;1.70;99.90
57088;DHT22;42965;52.846;6.614;2023-04-03T01:53:37;1.60;99.90
57088;DHT22;42965;52.846;6.614;2023-04-03T01:56:04;1.60;99.90
57088;DHT22;42965;52.846;6.614;2023-04-03T01:58:31;1.50;99.90
57088;DHT22;42965;52.846;6.614;2023-04-03T02:00:58;1.50;99.90
57088;DHT22;42965;52.846;6.614;2023-04-03T02:03:24;1.50;99.90
57088;DHT22;42965;52.846;6.614;2023-04-03T02:05:50;1.50;99.90
57088;DHT22;42965;52.846;6.614;2023-04-03T02:08:17;1.50;99.90
57088;DHT22;42965;52.846;6.614;2023-04-03T02:10:50;1.50;99.90
57088;DHT22;42965;52.846;6.614;2023-04-03T02:13:18;1.40;99.90
57088;DHT22;42965;52.846;6.614;2023-04-03T02:15:45;1.40;99.90
57088;DHT22;42965;52.846;6.614;2023-04-03T02:18:12;1.40;99.90
57088;DHT22;42965;52.846;6.614;2023-04-03T02:20:40;1.40;99.90
57088;DHT22;42965;52.846;6.614;2023-04-03T02:23:06;1.40;99.90
57088;DHT22;42965;52.846;6.614;2023-04-03T02:25:33;1.40;99.90
57088;DHT22;42965;52.846;6.614;2023-04-03T02:27:59;1.30;99.90
57088;DHT22;42965;52.846;6.614;2023-04-03T02:30:28;1.30;99.90
57088;DHT22;42965;52.846;6.614;2023-04-03T02:32:58;1.20;99.90
57088;DHT22;42965;52.846;6.614;2023-04-03T02:35:28;1.30;99.90
57088;DHT22;42965;52.846;6.614;2023-04-03T02:37:58;1.20;99.90
57088;DHT22;42965;52.846;6.614;2023-04-03T02:40:25;1.20;99.90
57088;DHT22;42965;52.846;6.614;2023-04-03T02:42:51;1.20;99.90
57088;DHT22;42965;52.846;6.614;2023-04-03T02:45:19;1.10;99.90
57088;DHT22;42965;52.846;6.614;2023-04-03T02:47:46;1.10;99.90
57088;DHT22;42965;52.846;6.614;2023-04-03T02:50:12;1.10;99.90
57088;DHT22;42965;52.846;6.614;2023-04-03T02:52:38;1.10;99.90
57088;DHT22;42965;52.846;6.614;2023-04-03T02:55:06;1.00;99.90
57088;DHT22;42965;52.846;6.614;2023-04-03T02:57:35;1.00;99.90
57088;DHT22;42965;52.846;6.614;2023-04-03T03:00:02;1.00;99.90
57088;DHT22;42965;52.846;6.614;2023-04-03T03:02:29;1.00;99.90
57088;DHT22;42965;52.846;6.614;2023-04-03T03:04:55;0.90;99.90
57088;DHT22;42965;52.846;6.614;2023-04-03T03:07:23;0.90;99.90
57088;DHT22;42965;52.846;6.614;2023-04-03T03:09:52;0.90;99.90
57088;DHT22;42965;52.846;6.614;2023-04-03T03:12:19;0.90;99.90
57088;DHT22;42965;52.846;6.614;2023-04-03T03:14:52;0.80;99.90
57088;DHT22;42965;52.846;6.614;2023-04-03T03:17:18;0.80;99.90
57088;DHT22;42965;52.846;6.614;2023-04-03T03:19:45;0.80;99.90
57088;DHT22;42965;52.846;6.614;2023-04-03T03:22:12;0.80;99.90
57088;DHT22;42965;52.846;6.614;2023-04-03T03:24:38;0.70;99.90
57088;DHT22;42965;52.846;6.614;2023-04-03T03:27:04;0.70;99.90
57088;DHT22;42965;52.846;6.614;2023-04-03T03:29:34;0.70;99.90
57088;DHT22;42965;52.846;6.614;2023-04-03T03:32:04;0.60;99.90
57088;DHT22;42965;52.846;6.614;2023-04-03T03:34:30;0.60;99.90
57088;DHT22;42965;52.846;6.614;2023-04-03T03:37:10;0.60;99.90
57088;DHT22;42965;52.846;6.614;2023-04-03T03:39:37;0.50;99.90
57088;DHT22;42965;52.846;6.614;2023-04-03T03:42:04;0.50;99.90
57088;DHT22;42965;52.846;6.614;2023-04-03T03:44:31;0.50;99.90
57088;DHT22;42965;52.846;6.614;2023-04-03T03:47:01;0.40;99.90
57088;DHT22;42965;52.846;6.614;2023-04-03T03:49:43;0.40;99.90
57088;DHT22;42965;52.846;6.614;2023-04-03T03:52:10;0.40;99.90
57088;DHT22;42965;52.846;6.614;2023-04-03T03:54:37;0.40;99.90
57088;DHT22;42965;52.846;6.614;2023-04-03T03:57:05;0.40;99.90
57088;DHT22;42965;52.846;6.614;2023-04-03T03:59:36;0.30;99.90
57088;DHT22;42965;52.846;6.614;2023-04-03T04:02:04;0.30;99.90
57088;DHT22;42965;52.846;6.614;2023-04-03T04:04:31;0.30;99.90
57088;DHT22;42965;52.846;6.614;2023-04-03T04:06:57;0.30;99.90
57088;DHT22;42965;52.846;6.614;2023-04-03T04:09:23;0.30;99.90
57088;DHT22;42965;52.846;6.614;2023-04-03T04:11:50;0.30;99.90
57088;DHT22;42965;52.846;6.614;2023-04-03T04:14:17;0.30;99.90
57088;DHT22;42965;52.846;6.614;2023-04-03T04:16:44;0.20;99.90
57088;DHT22;42965;52.846;6.614;2023-04-03T04:19:15;0.20;99.90
57088;DHT22;42965;52.846;6.614;2023-04-03T04:21:43;0.20;99.90
57088;DHT22;42965;52.846;6.614;2023-04-03T04:24:09;0.20;99.90
57088;DHT22;42965;52.846;6.614;2023-04-03T04:26:37;0.20;99.90
57088;DHT22;42965;52.846;6.614;2023-04-03T04:29:04;0.10;99.90
57088;DHT22;42965;52.846;6.614;2023-04-03T04:31:33;0.10;99.90
57088;DHT22;42965;52.846;6.614;2023-04-03T04:34:00;0.10;99.90
57088;DHT22;42965;52.846;6.614;2023-04-03T04:36:26;0.10;99.90
57088;DHT22;42965;52.846;6.614;2023-04-03T04:38:53;0.10;99.90
57088;DHT22;42965;52.846;6.614;2023-04-03T04:41:21;0.10;99.90
57088;DHT22;42965;52.846;6.614;2023-04-03T04:43:52;0.00;99.90
57088;DHT22;42965;52.846;6.614;2023-04-03T04:46:19;0.00;99.90
57088;DHT22;42965;52.846;6.614;2023-04-03T04:48:50;0.10;99.90
57088;DHT22;42965;52.846;6.614;2023-04-03T04:51:19;0.00;99.90
57088;DHT22;42965;52.846;6.614;2023-04-03T04:53:45;0.00;99.90
57088;DHT22;42965;52.846;6.614;2023-04-03T04:56:17;0.00;99.90
57088;DHT22;42965;52.846;6.614;2023-04-03T04:58:45;0.00;99.90
57088;DHT22;42965;52.846;6.614;2023-04-03T05:01:11;0.00;99.90
57088;DHT22;42965;52.846;6.614;2023-04-03T05:03:52;-0.10;99.90
57088;DHT22;42965;52.846;6.614;2023-04-03T05:06:19;0.00;99.90
57088;DHT22;42965;52.846;6.614;2023-04-03T05:08:46;-0.10;99.90
57088;DHT22;42965;52.846;6.614;2023-04-03T05:11:13;-0.10;99.90
57088;DHT22;42965;52.846;6.614;2023-04-03T05:13:40;0.00;99.90
57088;DHT22;42965;52.846;6.614;2023-04-03T05:16:06;0.00;99.90
57088;DHT22;42965;52.846;6.614;2023-04-03T05:18:33;-0.10;99.90
57088;DHT22;42965;52.846;6.614;2023-04-03T05:21:04;0.00;99.90
57088;DHT22;42965;52.846;6.614;2023-04-03T05:23:37;0.00;99.90
57088;DHT22;42965;52.846;6.614;2023-04-03T05:26:04;0.00;99.90
57088;DHT22;42965;52.846;6.614;2023-04-03T05:28:31;0.00;99.90
57088;DHT22;42965;52.846;6.614;2023-04-03T05:30:58;0.00;99.90
57088;DHT22;42965;52.846;6.614;2023-04-03T05:33:29;0.00;99.90
57088;DHT22;42965;52.846;6.614;2023-04-03T05:36:03;0.10;99.90
57088;DHT22;42965;52.846;6.614;2023-04-03T05:38:38;0.00;99.90
57088;DHT22;42965;52.846;6.614;2023-04-03T05:41:14;0.10;99.90
57088;DHT22;42965;52.846;6.614;2023-04-03T05:43:44;0.20;99.90
57088;DHT22;42965;52.846;6.614;2023-04-03T05:46:13;0.20;99.90
57088;DHT22;42965;52.846;6.614;2023-04-03T05:48:42;0.30;99.90
57088;DHT22;42965;52.846;6.614;2023-04-03T05:51:19;0.30;99.90
57088;DHT22;42965;52.846;6.614;2023-04-03T05:53:54;0.40;99.90
57088;DHT22;42965;52.846;6.614;2023-04-03T05:56:22;0.50;99.90
57088;DHT22;42965;52.846;6.614;2023-04-03T05:58:49;0.60;99.90
57088;DHT22;42965;52.846;6.614;2023-04-03T06:01:15;0.70;99.90
57088;DHT22;42965;52.846;6.614;2023-04-03T06:03:43;0.80;99.90
57088;DHT22;42965;52.846;6.614;2023-04-03T06:06:14;0.90;99.90
57088;DHT22;42965;52.846;6.614;2023-04-03T06:08:40;1.00;99.90
57088;DHT22;42965;52.846;6.614;2023-04-03T06:11:06;1.10;99.90
57088;DHT22;42965;52.846;6.614;2023-04-03T06:13:34;1.20;99.90
57088;DHT22;42965;52.846;6.614;2023-04-03T06:16:01;1.30;99.90
57088;DHT22;42965;52.846;6.614;2023-04-03T06:18:28;1.40;99.90
57088;DHT22;42965;52.846;6.614;2023-04-03T06:20:55;1.50;99.90
57088;DHT22;42965;52.846;6.614;2023-04-03T06:23:21;1.70;99.90
57088;DHT22;42965;52.846;6.614;2023-04-03T06:25:48;1.80;99.90
57088;DHT22;42965;52.846;6.614;2023-04-03T06:28:14;1.90;99.90
57088;DHT22;42965;52.846;6.614;2023-04-03T06:30:41;2.00;99.90
57088;DHT22;42965;52.846;6.614;2023-04-03T06:33:07;2.10;99.90
57088;DHT22;42965;52.846;6.614;2023-04-03T06:35:34;2.30;99.90
57088;DHT22;42965;52.846;6.614;2023-04-03T06:38:01;2.40;99.90
57088;DHT22;42965;52.846;6.614;2023-04-03T06:40:27;2.70;99.90
57088;DHT22;42965;52.846;6.614;2023-04-03T06:42:54;2.80;99.90
57088;DHT22;42965;52.846;6.614;2023-04-03T06:45:20;2.90;99.90
57088;DHT22;42965;52.846;6.614;2023-04-03T06:47:48;3.10;99.90
57088;DHT22;42965;52.846;6.614;2023-04-03T06:50:14;3.10;99.90
57088;DHT22;42965;52.846;6.614;2023-04-03T06:52:41;3.30;99.90
57088;DHT22;42965;52.846;6.614;2023-04-03T06:55:08;3.50;99.90
57088;DHT22;42965;52.846;6.614;2023-04-03T06:57:35;3.60;99.90
57088;DHT22;42965;52.846;6.614;2023-04-03T07:00:04;3.70;99.90
57088;DHT22;42965;52.846;6.614;2023-04-03T07:02:31;3.80;99.90
57088;DHT22;42965;52.846;6.614;2023-04-03T07:05:04;4.10;99.90
57088;DHT22;42965;52.846;6.614;2023-04-03T07:07:40;4.50;99.90
57088;DHT22;42965;52.846;6.614;2023-04-03T07:10:07;4.70;99.90
57088;DHT22;42965;52.846;6.614;2023-04-03T07:12:36;4.80;99.90
57088;DHT22;42965;52.846;6.614;2023-04-03T07:15:05;5.00;99.90
57088;DHT22;42965;52.846;6.614;2023-04-03T07:17:32;5.10;99.90
57088;DHT22;42965;52.846;6.614;2023-04-03T07:19:58;5.40;99.90
57088;DHT22;42965;52.846;6.614;2023-04-03T07:22:31;5.80;99.90
57088;DHT22;42965;52.846;6.614;2023-04-03T07:24:57;6.10;99.90
57088;DHT22;42965;52.846;6.614;2023-04-03T07:27:28;6.20;99.90
57088;DHT22;42965;52.846;6.614;2023-04-03T07:29:54;6.50;99.90
57088;DHT22;42965;52.846;6.614;2023-04-03T07:32:22;6.70;99.90
57088;DHT22;42965;52.846;6.614;2023-04-03T07:34:48;6.90;99.90
57088;DHT22;42965;52.846;6.614;2023-04-03T07:37:14;6.90;99.90
57088;DHT22;42965;52.846;6.614;2023-04-03T07:39:44;7.50;99.90
57088;DHT22;42965;52.846;6.614;2023-04-03T07:42:11;7.80;99.90
57088;DHT22;42965;52.846;6.614;2023-04-03T07:44:38;8.20;99.90
57088;DHT22;42965;52.846;6.614;2023-04-03T07:47:04;8.20;99.90
57088;DHT22;42965;52.846;6.614;2023-04-03T07:49:32;8.40;99.90
57088;DHT22;42965;52.846;6.614;2023-04-03T07:51:59;8.50;99.90
57088;DHT22;42965;52.846;6.614;2023-04-03T07:54:25;8.60;99.90
57088;DHT22;42965;52.846;6.614;2023-04-03T07:56:52;8.80;99.90
57088;DHT22;42965;52.846;6.614;2023-04-03T07:59:18;8.90;99.00
57088;DHT22;42965;52.846;6.614;2023-04-03T08:01:45;9.20;99.70
57088;DHT22;42965;52.846;6.614;2023-04-03T08:04:11;9.50;82.10
57088;DHT22;42965;52.846;6.614;2023-04-03T08:06:38;9.60;73.10
57088;DHT22;42965;52.846;6.614;2023-04-03T08:09:04;9.50;74.00
57088;DHT22;42965;52.846;6.614;2023-04-03T08:11:31;9.40;69.70
57088;DHT22;42965;52.846;6.614;2023-04-03T08:13:57;9.70;70.30
57088;DHT22;42965;52.846;6.614;2023-04-03T08:16:24;9.80;68.30
57088;DHT22;42965;52.846;6.614;2023-04-03T08:18:54;10.00;67.30
57088;DHT22;42965;52.846;6.614;2023-04-03T08:21:24;10.10;66.70
57088;DHT22;42965;52.846;6.614;2023-04-03T08:23:52;10.30;65.60
57088;DHT22;42965;52.846;6.614;2023-04-03T08:26:20;10.50;66.20
57088;DHT22;42965;52.846;6.614;2023-04-03T08:28:48;10.40;61.80
57088;DHT22;42965;52.846;6.614;2023-04-03T08:31:17;10.30;61.20
57088;DHT22;42965;52.846;6.614;2023-04-03T08:33:44;10.50;61.50
57088;DHT22;42965;52.846;6.614;2023-04-03T08:36:25;10.70;61.90
57088;DHT22;42965;52.846;6.614;2023-04-03T08:38:53;11.20;59.20
57088;DHT22;42965;52.846;6.614;2023-04-03T08:41:32;11.10;58.40
57088;DHT22;42965;52.846;6.614;2023-04-03T08:44:25;10.70;56.90
57088;DHT22;42965;52.846;6.614;2023-04-03T08:54:55;11.80;54.10
57088;DHT22;42965;52.846;6.614;2023-04-03T08:57:39;11.90;52.10
57088;DHT22;42965;52.846;6.614;2023-04-03T09:02:47;12.10;52.60
57088;DHT22;42965;52.846;6.614;2023-04-03T09:05:20;12.00;52.50
57088;DHT22;42965;52.846;6.614;2023-04-03T09:07:58;12.20;51.40
57088;DHT22;42965;52.846;6.614;2023-04-03T09:10:33;12.60;53.10
57088;DHT22;42965;52.846;6.614;2023-04-03T09:21:57;13.10;46.50
57088;DHT22;42965;52.846;6.614;2023-04-03T09:24:24;13.20;47.30
57088;DHT22;42965;52.846;6.614;2023-04-03T09:26:58;13.30;46.30
57088;DHT22;42965;52.846;6.614;2023-04-03T09:29:26;13.60;46.10
57088;DHT22;42965;52.846;6.614;2023-04-03T09:32:02;13.80;47.20
57088;DHT22;42965;52.846;6.614;2023-04-03T09:34:41;14.10;46.20
57088;DHT22;42965;52.846;6.614;2023-04-03T09:37:07;14.30;46.30
57088;DHT22;42965;52.846;6.614;2023-04-03T09:39:53;14.40;43.70
57088;DHT22;42965;52.846;6.614;2023-04-03T09:42:26;14.20;44.60
57088;DHT22;42965;52.846;6.614;2023-04-03T09:44:57;14.20;44.40
57088;DHT22;42965;52.846;6.614;2023-04-03T09:47:31;14.80;44.00
57088;DHT22;42965;52.846;6.614;2023-04-03T09:50:18;14.70;44.10
57088;DHT22;42965;52.846;6.614;2023-04-03T09:52:48;15.10;43.20
57088;DHT22;42965;52.846;6.614;2023-04-03T09:55:17;15.00;43.00
57088;DHT22;42965;52.846;6.614;2023-04-03T09:57:45;15.10;42.50
57088;DHT22;42965;52.846;6.614;2023-04-03T10:00:24;14.90;42.70
57088;DHT22;42965;52.846;6.614;2023-04-03T10:02:56;15.00;41.90
57088;DHT22;42965;52.846;6.614;2023-04-03T10:05:28;15.10;42.30
57088;DHT22;42965;52.846;6.614;2023-04-03T10:10:41;15.10;41.30
57088;DHT22;42965;52.846;6.614;2023-04-03T10:13:15;15.40;42.00
57088;DHT22;42965;52.846;6.614;2023-04-03T10:18:29;15.60;41.30
57088;DHT22;42965;52.846;6.614;2023-04-03T10:21:02;15.40;40.90
57088;DHT22;42965;52.846;6.614;2023-04-03T10:28:52;14.60;38.90
57088;DHT22;42965;52.846;6.614;2023-04-03T10:37:08;16.00;41.60
57088;DHT22;42965;52.846;6.614;2023-04-03T10:39:58;16.40;39.70
57088;DHT22;42965;52.846;6.614;2023-04-03T10:43:04;16.10;38.30
57088;DHT22;42965;52.846;6.614;2023-04-03T10:48:14;15.70;37.10
57088;DHT22;42965;52.846;6.614;2023-04-03T11:01:53;16.00;37.10
57088;DHT22;42965;52.846;6.614;2023-04-03T11:04:21;16.50;38.90
57088;DHT22;42965;52.846;6.614;2023-04-03T11:07:06;16.50;39.60
57088;DHT22;42965;52.846;6.614;2023-04-03T11:09:43;17.10;39.20
57088;DHT22;42965;52.846;6.614;2023-04-03T11:12:17;16.50;38.10
57088;DHT22;42965;52.846;6.614;2023-04-03T11:14:47;16.30;36.30
57088;DHT22;42965;52.846;6.614;2023-04-03T11:17:39;16.50;38.50
57088;DHT22;42965;52.846;6.614;2023-04-03T11:22:48;16.60;37.00
57088;DHT22;42965;52.846;6.614;2023-04-03T11:25:23;16.80;36.00
57088;DHT22;42965;52.846;6.614;2023-04-03T11:28:06;16.40;35.90
57088;DHT22;42965;52.846;6.614;2023-04-03T11:33:35;16.20;36.10
57088;DHT22;42965;52.846;6.614;2023-04-03T11:36:32;15.70;37.50
57088;DHT22;42965;52.846;6.614;2023-04-03T11:39:05;16.00;36.60
57088;DHT22;42965;52.846;6.614;2023-04-03T11:41:33;16.50;38.30
57088;DHT22;42965;52.846;6.614;2023-04-03T11:44:37;16.80;38.30
57088;DHT22;42965;52.846;6.614;2023-04-03T11:47:10;17.00;36.90
57088;DHT22;42965;52.846;6.614;2023-04-03T11:49:53;17.00;35.50
57088;DHT22;42965;52.846;6.614;2023-04-03T11:58:12;16.70;37.50
57088;DHT22;42965;52.846;6.614;2023-04-03T12:01:08;16.40;37.20
57088;DHT22;42965;52.846;6.614;2023-04-03T12:13:36;16.90;37.80
57088;DHT22;42965;52.846;6.614;2023-04-03T12:16:05;17.10;37.50
57088;DHT22;42965;52.846;6.614;2023-04-03T12:18:53;16.50;37.50
57088;DHT22;42965;52.846;6.614;2023-04-03T12:40:48;17.40;37.40
57088;DHT22;42965;52.846;6.614;2023-04-03T12:51:19;17.30;36.10
57088;DHT22;42965;52.846;6.614;2023-04-03T12:53:48;18.20;36.20
57088;DHT22;42965;52.846;6.614;2023-04-03T12:58:45;18.50;36.80
57088;DHT22;42965;52.846;6.614;2023-04-03T13:01:16;18.90;36.20
57088;DHT22;42965;52.846;6.614;2023-04-03T13:03:55;17.70;36.10
57088;DHT22;42965;52.846;6.614;2023-04-03T13:06:35;18.10;35.10
57088;DHT22;42965;52.846;6.614;2023-04-03T13:09:04;19.10;36.90
57088;DHT22;42965;52.846;6.614;2023-04-03T13:11:36;19.30;37.20
57088;DHT22;42965;52.846;6.614;2023-04-03T13:14:16;19.50;37.60
57088;DHT22;42965;52.846;6.614;2023-04-03T13:16:56;19.20;34.80
57088;DHT22;42965;52.846;6.614;2023-04-03T13:19:24;19.50;36.20
57088;DHT22;42965;52.846;6.614;2023-04-03T13:22:04;19.80;35.70
57088;DHT22;42965;52.846;6.614;2023-04-03T13:24:34;19.30;36.40
57088;DHT22;42965;52.846;6.614;2023-04-03T13:27:02;19.40;35.70
57088;DHT22;42965;52.846;6.614;2023-04-03T13:29:34;19.50;35.60
57088;DHT22;42965;52.846;6.614;2023-04-03T13:32:03;19.60;35.20
57088;DHT22;42965;52.846;6.614;2023-04-03T13:34:42;20.00;33.80
57088;DHT22;42965;52.846;6.614;2023-04-03T13:37:29;19.30;34.80
57088;DHT22;42965;52.846;6.614;2023-04-03T13:39:59;19.20;34.80
57088;DHT22;42965;52.846;6.614;2023-04-03T13:42:29;19.00;35.30
57088;DHT22;42965;52.846;6.614;2023-04-03T13:45:28;19.70;34.50
57088;DHT22;42965;52.846;6.614;2023-04-03T13:48:18;19.60;33.90
57088;DHT22;42965;52.846;6.614;2023-04-03T13:56:23;19.50;34.50
57088;DHT22;42965;52.846;6.614;2023-04-03T13:58:58;19.70;33.60
57088;DHT22;42965;52.846;6.614;2023-04-03T14:01:54;19.70;34.60
57088;DHT22;42965;52.846;6.614;2023-04-03T14:04:21;20.00;33.80
57088;DHT22;42965;52.846;6.614;2023-04-03T14:06:49;20.00;34.00
57088;DHT22;42965;52.846;6.614;2023-04-03T14:09:17;19.90;34.00
57088;DHT22;42965;52.846;6.614;2023-04-03T14:11:44;19.50;34.30
57088;DHT22;42965;52.846;6.614;2023-04-03T14:14:21;19.50;34.40
57088;DHT22;42965;52.846;6.614;2023-04-03T14:16:53;19.70;34.80
57088;DHT22;42965;52.846;6.614;2023-04-03T14:19:29;19.80;34.50
57088;DHT22;42965;52.846;6.614;2023-04-03T14:21:58;19.90;34.20
57088;DHT22;42965;52.846;6.614;2023-04-03T14:24:24;19.80;33.40
57088;DHT22;42965;52.846;6.614;2023-04-03T14:26:53;19.90;34.50
57088;DHT22;42965;52.846;6.614;2023-04-03T14:29:21;20.30;34.20
57088;DHT22;42965;52.846;6.614;2023-04-03T14:31:49;19.60;34.70
57088;DHT22;42965;52.846;6.614;2023-04-03T14:34:16;19.90;34.40
57088;DHT22;42965;52.846;6.614;2023-04-03T14:36:44;19.40;34.30
57088;DHT22;42965;52.846;6.614;2023-04-03T14:39:18;19.80;34.90
57088;DHT22;42965;52.846;6.614;2023-04-03T14:41:46;19.30;33.90
57088;DHT22;42965;52.846;6.614;2023-04-03T14:44:12;19.20;34.20
57088;DHT22;42965;52.846;6.614;2023-04-03T14:46:42;19.00;33.90
57088;DHT22;42965;52.846;6.614;2023-04-03T14:49:15;19.20;33.40
57088;DHT22;42965;52.846;6.614;2023-04-03T14:51:42;19.10;33.60
57088;DHT22;42965;52.846;6.614;2023-04-03T14:54:26;18.70;33.60
57088;DHT22;42965;52.846;6.614;2023-04-03T14:56:56;19.30;33.60
57088;DHT22;42965;52.846;6.614;2023-04-03T14:59:23;19.20;34.70
57088;DHT22;42965;52.846;6.614;2023-04-03T15:01:53;19.50;34.60
57088;DHT22;42965;52.846;6.614;2023-04-03T15:04:20;19.20;35.00
57088;DHT22;42965;52.846;6.614;2023-04-03T15:06:48;19.10;32.80
57088;DHT22;42965;52.846;6.614;2023-04-03T15:09:20;18.80;33.40
57088;DHT22;42965;52.846;6.614;2023-04-03T15:11:51;18.20;34.30
57088;DHT22;42965;52.846;6.614;2023-04-03T15:14:18;18.30;35.20
57088;DHT22;42965;52.846;6.614;2023-04-03T15:16:45;18.20;36.00
57088;DHT22;42965;52.846;6.614;2023-04-03T15:19:11;18.30;36.70
57088;DHT22;42965;52.846;6.614;2023-04-03T15:21:38;18.10;36.00
57088;DHT22;42965;52.846;6.614;2023-04-03T15:24:05;16.70;35.20
57088;DHT22;42965;52.846;6.614;2023-04-03T15:26:31;16.20;37.30
57088;DHT22;42965;52.846;6.614;2023-04-03T15:28:58;15.40;37.40
57088;DHT22;42965;52.846;6.614;2023-04-03T15:31:24;14.80;39.70
57088;DHT22;42965;52.846;6.614;2023-04-03T15:33:51;14.50;40.30
57088;DHT22;42965;52.846;6.614;2023-04-03T15:36:17;14.50;39.50
57088;DHT22;42965;52.846;6.614;2023-04-03T15:38:45;14.10;40.40
57088;DHT22;42965;52.846;6.614;2023-04-03T15:41:12;13.90;41.10
57088;DHT22;42965;52.846;6.614;2023-04-03T15:43:38;13.60;41.70
57088;DHT22;42965;52.846;6.614;2023-04-03T15:46:04;13.40;41.60
57088;DHT22;42965;52.846;6.614;2023-04-03T15:48:31;13.00;41.90
57088;DHT22;42965;52.846;6.614;2023-04-03T15:50:57;12.70;42.50
57088;DHT22;42965;52.846;6.614;2023-04-03T15:53:24;12.80;45.30
57088;DHT22;42965;52.846;6.614;2023-04-03T15:55:50;12.80;45.00
57088;DHT22;42965;52.846;6.614;2023-04-03T15:58:16;12.70;45.00
57088;DHT22;42965;52.846;6.614;2023-04-03T16:00:42;12.20;44.60
57088;DHT22;42965;52.846;6.614;2023-04-03T16:03:18;12.20;45.50
57088;DHT22;42965;52.846;6.614;2023-04-03T16:05:44;11.80;45.90
57088;DHT22;42965;52.846;6.614;2023-04-03T16:08:11;11.80;45.70
57088;DHT22;42965;52.846;6.614;2023-04-03T16:10:38;11.70;45.30
57088;DHT22;42965;52.846;6.614;2023-04-03T16:13:07;11.70;45.60
57088;DHT22;42965;52.846;6.614;2023-04-03T16:15:34;11.70;45.70
57088;DHT22;42965;52.846;6.614;2023-04-03T16:18:01;11.70;46.00
57088;DHT22;42965;52.846;6.614;2023-04-03T16:20:28;11.70;47.10
57088;DHT22;42965;52.846;6.614;2023-04-03T16:22:56;11.50;46.60
57088;DHT22;42965;52.846;6.614;2023-04-03T16:25:23;11.50;46.70
57088;DHT22;42965;52.846;6.614;2023-04-03T16:27:53;11.30;46.70
57088;DHT22;42965;52.846;6.614;2023-04-03T16:30:19;11.40;47.60
57088;DHT22;42965;52.846;6.614;2023-04-03T16:32:45;11.20;47.30
57088;DHT22;42965;52.846;6.614;2023-04-03T16:35:12;11.10;45.60
57088;DHT22;42965;52.846;6.614;2023-04-03T16:37:39;10.80;46.00
57088;DHT22;42965;52.846;6.614;2023-04-03T16:40:06;10.90;47.80
57088;DHT22;42965;52.846;6.614;2023-04-03T16:42:33;10.80;47.80
57088;DHT22;42965;52.846;6.614;2023-04-03T16:44:59;10.80;46.70
57088;DHT22;42965;52.846;6.614;2023-04-03T16:47:29;10.80;46.70
57088;DHT22;42965;52.846;6.614;2023-04-03T16:49:58;10.60;47.00
57088;DHT22;42965;52.846;6.614;2023-04-03T16:52:24;10.40;47.60
57088;DHT22;42965;52.846;6.614;2023-04-03T16:54:53;10.50;48.90
57088;DHT22;42965;52.846;6.614;2023-04-03T16:57:22;10.30;49.00
57088;DHT22;42965;52.846;6.614;2023-04-03T16:59:51;10.20;48.90
57088;DHT22;42965;52.846;6.614;2023-04-03T17:02:18;10.20;49.20
57088;DHT22;42965;52.846;6.614;2023-04-03T17:04:45;10.10;49.50
57088;DHT22;42965;52.846;6.614;2023-04-03T17:07:12;10.10;49.40
57088;DHT22;42965;52.846;6.614;2023-04-03T17:09:38;10.00;49.00
57088;DHT22;42965;52.846;6.614;2023-04-03T17:12:04;10.00;49.60
57088;DHT22;42965;52.846;6.614;2023-04-03T17:14:31;9.90;49.60
57088;DHT22;42965;52.846;6.614;2023-04-03T17:16:57;9.80;49.90
57088;DHT22;42965;52.846;6.614;2023-04-03T17:19:23;9.60;49.80
57088;DHT22;42965;52.846;6.614;2023-04-03T17:21:50;9.60;50.50
57088;DHT22;42965;52.846;6.614;2023-04-03T17:24:17;9.60;51.30
57088;DHT22;42965;52.846;6.614;2023-04-03T17:26:43;9.60;50.90
57088;DHT22;42965;52.846;6.614;2023-04-03T17:29:09;9.50;51.10
57088;DHT22;42965;52.846;6.614;2023-04-03T17:31:36;9.40;51.40
57088;DHT22;42965;52.846;6.614;2023-04-03T17:34:02;9.30;52.10
57088;DHT22;42965;52.846;6.614;2023-04-03T17:36:30;9.10;52.00
57088;DHT22;42965;52.846;6.614;2023-04-03T17:38:57;9.00;52.20
57088;DHT22;42965;52.846;6.614;2023-04-03T17:41:23;9.00;52.70
57088;DHT22;42965;52.846;6.614;2023-04-03T17:43:51;9.00;52.60
57088;DHT22;42965;52.846;6.614;2023-04-03T17:46:23;8.90;52.90
57088;DHT22;42965;52.846;6.614;2023-04-03T17:48:50;8.80;52.90
57088;DHT22;42965;52.846;6.614;2023-04-03T17:51:20;8.80;53.30